Time;durP1;ratioP1;P1;durP2;ratioP2;P2;SDS_P1;SDS_P2;PMS_P1;PMS_P2;Temp;Humidity;BMP_temperature;BMP_pressure;BME280_temperature;BME280_humidity;BME280_pressure;Samples;Min_cycle;Max_cycle;Signal;HPM_P1;HPM_P2
2022/03/15 00:01:38;;;;;;;9.77;5.00;;;8.20;60.60;;;8.64;49.94;98761.19;6233928;23;20226;-41
2022/03/15 00:04:07;;;;;;;8.80;4.67;;;8.10;60.90;;;8.60;49.90;98739.34;6236243;23;20062;-41
2022/03/15 00:06:36;;;;;;;6.50;4.27;;;8.10;61.00;;;8.61;50.32;98732.25;6236329;23;20028;-41
2022/03/15 00:09:04;;;;;;;6.37;4.47;;;8.10;60.80;;;8.61;50.14;98727.78;6236023;23;20027;-41
2022/03/15 00:11:34;;;;;;;9.27;5.37;;;8.20;60.70;;;8.62;50.09;98723.31;6235832;23;20348;-41
2022/03/15 00:14:08;;;;;;;9.83;4.27;;;8.20;60.50;;;8.61;50.51;98741.06;6246433;23;20026;-41
2022/03/15 00:16:36;;;;;;;7.57;4.27;;;8.20;60.70;;;8.61;50.46;98748.19;6220463;23;20012;-41
2022/03/15 00:19:05;;;;;;;7.67;4.80;;;8.20;60.90;;;8.62;50.17;98741.88;6237064;23;20015;-41
2022/03/15 00:21:33;;;;;;;6.47;4.80;;;8.20;60.50;;;8.62;50.20;98740.06;6234080;23;20042;-41
2022/03/15 00:24:00;;;;;;;5.10;4.13;;;8.20;60.20;;;8.64;50.62;98753.22;6236417;23;20015;-41
2022/03/15 00:26:29;;;;;;;8.37;4.13;;;8.20;60.40;;;8.63;50.23;98751.56;6235897;23;20019;-41
2022/03/15 00:28:57;;;;;;;7.37;3.90;;;8.20;60.40;;;8.62;50.25;98750.69;6235265;23;20011;-41
2022/03/15 00:31:26;;;;;;;7.23;3.93;;;8.20;60.20;;;8.61;50.41;98743.72;6235918;23;20026;-41
2022/03/15 00:33:54;;;;;;;6.37;3.67;;;8.20;60.70;;;8.58;50.74;98735.13;6235419;23;20019;-41
2022/03/15 00:36:25;;;;;;;6.63;4.70;;;8.10;61.10;;;8.55;50.44;98741.53;6235992;23;20019;-41
2022/03/15 00:38:53;;;;;;;5.03;4.20;;;8.10;61.40;;;8.55;50.58;98722.97;6244244;23;20148;-41
2022/03/15 00:41:21;;;;;;;7.60;5.00;;;8.20;61.20;;;8.57;50.80;98731.66;6236373;23;20071;-41
2022/03/15 00:43:50;;;;;;;6.97;4.97;;;8.20;61.00;;;8.59;50.87;98723.56;6235786;23;20026;-41
2022/03/15 00:46:18;;;;;;;8.10;4.73;;;8.20;61.30;;;8.58;51.03;98724.53;6208936;23;20030;-41
2022/03/15 00:48:46;;;;;;;9.30;4.70;;;8.20;61.40;;;8.58;51.00;98725.34;6235217;23;20026;-41
2022/03/15 00:51:14;;;;;;;8.90;4.73;;;8.10;61.60;;;8.60;50.87;98725.25;6235954;23;20019;-41
2022/03/15 00:53:42;;;;;;;5.83;4.80;;;8.20;61.20;;;8.61;50.69;98714.50;6233835;23;20024;-41
2022/03/15 00:56:10;;;;;;;13.43;5.47;;;8.20;61.20;;;8.61;50.98;98708.38;6236074;23;20020;-41
2022/03/15 00:58:37;;;;;;;9.03;4.67;;;8.20;61.10;;;8.61;50.67;98709.19;6235382;23;20020;-41
2022/03/15 01:01:09;;;;;;;11.37;6.73;;;8.20;61.20;;;8.63;50.51;98706.44;6245734;23;20218;-41
2022/03/15 01:03:37;;;;;;;11.77;6.00;;;8.30;61.10;;;8.65;50.89;98702.69;6233443;23;20346;-41
2022/03/15 01:06:05;;;;;;;8.00;5.70;;;8.30;61.10;;;8.61;50.98;98708.38;6235689;23;20012;-41
2022/03/15 01:08:34;;;;;;;6.53;4.83;;;8.20;61.40;;;8.57;51.38;98701.59;6235545;23;20019;-41
2022/03/15 01:11:05;;;;;;;6.60;5.00;;;8.10;61.80;;;8.54;51.25;98702.69;6209366;23;20267;-41
2022/03/15 01:13:32;;;;;;;6.97;5.17;;;8.10;61.70;;;8.57;51.10;98702.44;6235471;23;20022;-41
2022/03/15 01:16:00;;;;;;;6.77;4.30;;;8.10;61.70;;;8.60;51.04;98696.88;6235396;23;20027;-41
2022/03/15 01:18:30;;;;;;;4.93;4.20;;;8.20;61.50;;;8.63;50.90;98694.00;6208127;23;20020;-41
2022/03/15 01:20:57;;;;;;;6.33;4.70;;;8.30;61.30;;;8.64;50.91;98687.69;6234120;23;20020;-41
2022/03/15 01:23:25;;;;;;;6.87;4.13;;;8.30;61.10;;;8.66;51.20;98688.41;6207674;23;20034;-41
2022/03/15 01:25:55;;;;;;;6.93;4.00;;;8.30;61.00;;;8.67;50.98;98691.94;6207064;23;20034;-41
2022/03/15 01:28:24;;;;;;;6.33;4.10;;;8.30;61.10;;;8.69;50.83;98691.81;6235633;23;20030;-41
2022/03/15 01:30:52;;;;;;;5.20;4.20;;;8.30;61.10;;;8.67;50.96;98684.81;6235003;23;20012;-41
2022/03/15 01:33:21;;;;;;;5.13;4.20;;;8.30;60.90;;;8.67;50.84;98686.63;6208922;23;20030;-41
2022/03/15 01:35:49;;;;;;;5.47;3.50;;;8.30;61.30;;;8.67;51.06;98683.97;6235484;23;20023;-41
2022/03/15 01:38:17;;;;;;;6.50;3.70;;;8.30;61.20;;;8.65;51.04;98681.44;6235290;23;20027;-41
2022/03/15 01:40:45;;;;;;;6.43;3.80;;;8.20;61.30;;;8.61;51.17;98673.84;6236970;23;20209;-41
2022/03/15 01:43:13;;;;;;;5.57;3.60;;;8.20;61.60;;;8.60;51.16;98672.16;6236662;23;20016;-41
2022/03/15 01:45:41;;;;;;;6.37;3.80;;;8.20;61.40;;;8.60;51.29;98667.69;6207965;23;20019;-41
2022/03/15 01:48:10;;;;;;;6.30;5.03;;;8.20;61.50;;;8.62;51.40;98659.59;6234940;23;20016;-41
2022/03/15 01:50:38;;;;;;;8.97;5.40;;;8.30;61.50;;;8.62;51.49;98655.13;6233954;23;20070;-41
2022/03/15 01:53:07;;;;;;;10.50;5.00;;;8.20;61.50;;;8.63;51.23;98654.19;6207531;23;20020;-41
2022/03/15 01:55:40;;;;;;;9.40;5.43;;;8.30;62.60;;;8.66;51.03;98656.56;6207255;23;20046;-41
2022/03/15 01:58:08;;;;;;;13.73;6.37;;;8.30;61.40;;;8.69;51.10;98659.97;6235475;23;20027;-41
2022/03/15 02:00:36;;;;;;;8.63;4.80;;;8.30;61.10;;;8.70;51.11;98651.84;6206857;23;20028;-41
2022/03/15 02:03:05;;;;;;;7.23;4.30;;;8.30;61.20;;;8.73;51.13;98654.28;6207205;23;20028;-41
2022/03/15 02:05:33;;;;;;;9.57;3.93;;;8.40;61.20;;;8.73;51.29;98661.41;6233646;23;20024;-41
2022/03/15 02:08:13;;;;;;;6.37;3.53;;;8.40;61.10;;;8.75;51.20;98670.91;6233265;23;20026;-41
2022/03/15 02:10:41;;;;;;;3.80;3.40;;;8.40;61.60;;;8.79;51.21;98666.22;6206949;23;20046;-41
2022/03/15 02:13:10;;;;;;;4.57;3.60;;;8.40;60.90;;;8.80;51.03;98660.78;6235489;23;20188;-41
2022/03/15 02:15:38;;;;;;;7.33;4.40;;;8.50;60.90;;;8.82;51.24;98664.16;6234899;23;20030;-41
2022/03/15 02:18:06;;;;;;;6.10;3.53;;;8.50;60.50;;;8.84;51.19;98677.28;6232510;23;20024;-41
2022/03/15 02:20:34;;;;;;;4.20;3.00;;;8.60;60.50;;;8.86;51.09;98668.25;6233477;23;20030;-41
2022/03/15 02:23:02;;;;;;;4.27;3.57;;;8.60;60.50;;;8.88;51.11;98657.50;6236472;23;20024;-41
2022/03/15 02:25:30;;;;;;;7.70;4.00;;;8.60;60.40;;;8.91;51.04;98649.25;6236905;23;20213;-41
2022/03/15 02:27:57;;;;;;;5.67;3.10;;;8.60;60.30;;;8.92;51.17;98648.31;6237004;23;20600;-41
2022/03/15 02:30:25;;;;;;;4.47;3.60;;;8.60;60.30;;;8.91;51.07;98651.91;6238006;23;20012;-41
2022/03/15 02:32:54;;;;;;;5.50;4.03;;;8.60;60.30;;;8.91;50.77;98651.06;6238069;23;20012;-41
2022/03/15 02:35:22;;;;;;;6.90;4.20;;;8.60;60.50;;;8.91;51.11;98651.91;6236619;23;20024;-41
2022/03/15 02:37:50;;;;;;;3.90;3.23;;;8.60;60.50;;;8.87;51.20;98653.97;6235369;23;20023;-41
2022/03/15 02:40:18;;;;;;;5.67;3.40;;;8.50;60.80;;;8.85;50.89;98655.06;6237781;23;20024;-41
2022/03/15 02:42:46;;;;;;;6.30;3.40;;;8.40;60.80;;;8.83;51.18;98646.41;6235430;23;20030;-41
2022/03/15 02:45:14;;;;;;;10.27;4.83;;;8.40;61.20;;;8.82;51.51;98644.69;6235335;23;20393;-41
2022/03/15 02:47:48;;;;;;;7.93;5.07;;;8.40;61.20;;;8.82;50.93;98639.38;6235790;23;20028;-41
2022/03/15 02:50:16;;;;;;;5.55;4.72;;;8.40;60.90;;;8.82;50.63;98634.94;6247235;23;20302;-41
2022/03/15 02:52:44;;;;;;;7.57;4.83;;;8.40;60.80;;;8.82;51.01;98629.63;6237517;23;20027;-41
2022/03/15 02:55:13;;;;;;;7.83;5.43;;;8.40;60.70;;;8.78;51.04;98633.50;6236943;23;20307;-41
2022/03/15 02:57:41;;;;;;;7.57;5.40;;;8.40;61.10;;;8.75;51.00;98631.09;6235258;23;20024;-41
2022/03/15 03:00:11;;;;;;;7.63;4.70;;;8.30;61.30;;;8.72;51.39;98625.19;6236486;23;20262;-41
2022/03/15 03:02:39;;;;;;;7.23;4.30;;;8.30;61.70;;;8.63;51.33;98626.78;6235758;23;20214;-41
2022/03/15 03:05:07;;;;;;;6.67;4.70;;;8.10;62.30;;;8.57;51.61;98625.47;6235506;23;20020;-41
2022/03/15 03:07:36;;;;;;;6.73;4.27;;;8.10;62.30;;;8.57;51.73;98633.44;6236893;23;20020;-41
2022/03/15 03:10:05;;;;;;;6.67;4.47;;;8.10;62.10;;;8.58;51.44;98628.97;6235943;23;20204;-41
2022/03/15 03:12:34;;;;;;;9.13;3.93;;;8.10;62.20;;;8.61;51.81;98628.72;6237678;23;20016;-41
2022/03/15 03:15:02;;;;;;;7.73;4.17;;;8.20;62.10;;;8.63;51.49;98629.44;6236302;23;20020;-41
2022/03/15 03:17:30;;;;;;;6.60;4.00;;;8.30;61.80;;;8.65;51.60;98631.00;6236211;23;20020;-41
2022/03/15 03:19:58;;;;;;;5.53;3.50;;;8.40;61.30;;;8.71;51.36;98623.50;6235918;23;20229;-41
2022/03/15 03:22:25;;;;;;;5.63;3.97;;;8.40;61.00;;;8.74;51.30;98626.72;6236557;23;20022;-41
2022/03/15 03:24:53;;;;;;;6.30;4.23;;;8.40;60.90;;;8.74;51.30;98625.91;6235839;23;20205;-41
2022/03/15 03:27:21;;;;;;;7.60;4.57;;;8.40;61.10;;;8.76;51.59;98619.53;6235466;23;20211;-41
2022/03/15 03:29:49;;;;;;;9.17;4.37;;;8.40;60.80;;;8.77;51.44;98609.72;6236802;23;20020;-41
2022/03/15 03:32:17;;;;;;;6.80;3.70;;;8.40;60.60;;;8.79;51.24;98613.94;6236927;23;20019;-41
2022/03/15 03:34:45;;;;;;;7.27;4.03;;;8.50;60.70;;;8.81;51.06;98613.81;6236116;23;20012;-41
2022/03/15 03:37:16;;;;;;;9.63;5.83;;;8.40;60.60;;;8.80;51.26;98598.84;6236009;23;20023;-41
2022/03/15 03:39:43;;;;;;;9.57;6.67;;;8.50;60.90;;;8.81;51.32;98593.41;6234464;23;20333;-41
2022/03/15 03:42:12;;;;;;;19.30;9.70;;;8.50;60.70;;;8.83;51.23;98598.59;6237029;23;20313;-41
2022/03/15 03:44:43;;;;;;;11.63;7.43;;;8.50;60.70;;;8.84;51.12;98600.28;6236620;23;20079;-42
2022/03/15 03:47:11;;;;;;;6.07;3.60;;;8.50;60.40;;;8.82;51.15;98599.56;6237321;23;20192;-41
2022/03/15 03:49:40;;;;;;;7.57;4.10;;;8.50;60.20;;;8.85;51.45;98601.97;6235748;23;20022;-42
2022/03/15 03:52:08;;;;;;;6.47;4.20;;;8.60;60.10;;;8.88;51.24;98601.72;6233783;23;20030;-42
2022/03/15 03:54:36;;;;;;;9.83;5.63;;;8.60;60.00;;;8.91;51.16;98584.69;6209455;23;20027;-41
2022/03/15 03:57:04;;;;;;;10.37;5.23;;;8.60;60.00;;;8.91;51.06;98588.19;6236102;23;20020;-42
2022/03/15 03:59:32;;;;;;;5.77;3.60;;;8.60;60.00;;;8.93;50.75;98596.84;6236545;23;20020;-42
2022/03/15 04:01:59;;;;;;;6.20;4.03;;;8.60;60.10;;;8.94;50.98;98592.41;6184090;23;20409;-42
2022/03/15 04:04:28;;;;;;;6.17;3.63;;;8.60;60.10;;;8.95;51.03;98594.09;6236573;23;20335;-41
2022/03/15 04:06:56;;;;;;;7.53;4.03;;;8.60;60.30;;;8.93;51.06;98590.72;6235138;23;20360;-42
2022/03/15 04:09:26;;;;;;;5.07;3.43;;;8.60;60.50;;;8.90;51.05;98591.81;6234078;23;20547;-42
2022/03/15 04:11:55;;;;;;;4.40;3.97;;;8.50;60.70;;;8.87;51.28;98586.75;6235876;23;20270;-42
2022/03/15 04:14:23;;;;;;;5.07;3.37;;;8.40;60.80;;;8.84;51.30;98590.50;6233391;23;20018;-41
2022/03/15 04:16:51;;;;;;;9.97;3.57;;;8.40;62.10;;;8.81;51.34;98582.78;6246298;23;20187;-41
2022/03/15 04:19:19;;;;;;;4.17;3.50;;;8.40;60.90;;;8.81;51.29;98592.56;6235086;23;20016;-42
2022/03/15 04:21:46;;;;;;;10.13;4.33;;;8.40;60.80;;;8.80;51.31;98597.06;6236396;23;20039;-42
2022/03/15 04:24:17;;;;;;;6.87;3.43;;;8.40;61.10;;;8.76;51.35;98592.97;6234900;23;20218;-41
2022/03/15 04:26:46;;;;;;;7.33;3.97;;;8.30;61.30;;;8.74;51.50;98588.72;6235416;23;20022;-41
2022/03/15 04:29:14;;;;;;;7.97;3.33;;;8.30;61.40;;;8.72;51.41;98588.00;6235368;23;20023;-41
2022/03/15 04:31:42;;;;;;;4.80;3.83;;;8.30;61.30;;;8.72;51.41;98588.84;6234882;23;20024;-41
2022/03/15 04:34:10;;;;;;;11.90;3.90;;;8.30;61.30;;;8.70;51.64;98582.81;6206516;23;20028;-41
2022/03/15 04:36:39;;;;;;;6.80;3.50;;;8.40;60.90;;;8.73;51.44;98581.75;6235085;23;20024;-41
2022/03/15 04:39:06;;;;;;;5.37;3.20;;;8.40;60.60;;;8.75;51.56;98582.47;6235666;23;20214;-41
2022/03/15 04:41:34;;;;;;;5.77;3.40;;;8.40;60.60;;;8.72;51.29;98577.41;6236104;23;20028;-41
2022/03/15 04:44:02;;;;;;;6.03;3.40;;;8.40;60.30;;;8.71;51.55;98579.22;6207736;23;20027;-41
2022/03/15 04:46:30;;;;;;;5.20;3.37;;;8.50;60.00;;;8.76;51.02;98576.16;6235303;23;20038;-41
2022/03/15 04:48:59;;;;;;;5.63;3.07;;;8.50;59.80;;;8.75;51.10;98570.03;6234507;23;20038;-41
2022/03/15 04:51:27;;;;;;;5.57;2.70;;;8.60;59.50;;;8.77;51.21;98570.75;6235502;23;20018;-41
2022/03/15 04:53:55;;;;;;;7.93;3.00;;;8.60;59.40;;;8.81;50.97;98576.66;6232144;23;20019;-40
2022/03/15 04:56:23;;;;;;;5.60;3.30;;;8.60;59.30;;;8.81;51.10;98568.69;6233418;23;20018;-40
2022/03/15 04:58:51;;;;;;;5.17;2.83;;;8.60;59.30;;;8.84;50.79;98568.41;6234278;23;20012;-41
2022/03/15 05:01:19;;;;;;;6.73;4.47;;;8.60;59.40;;;8.85;50.94;98576.25;6234918;23;20028;-41
2022/03/15 05:03:47;;;;;;;5.43;3.13;;;8.50;59.50;;;8.85;50.82;98583.38;6233381;23;20315;-41
2022/03/15 05:06:15;;;;;;;5.90;2.63;;;8.50;59.60;;;8.84;50.73;98573.72;6233888;23;20356;-40
2022/03/15 05:08:43;;;;;;;7.93;3.00;;;8.40;59.70;;;8.81;50.82;98574.00;6235456;23;20022;-41
2022/03/15 05:11:11;;;;;;;3.90;2.80;;;8.40;59.90;;;8.79;50.75;98565.31;6235252;23;20012;-41
2022/03/15 05:13:45;;;;;;;6.00;2.80;;;8.40;60.00;;;8.78;50.79;98560.97;6235091;23;20012;-41
2022/03/15 05:16:20;;;;;;;6.70;4.10;;;8.40;60.10;;;8.79;50.87;98567.97;6233486;23;20022;-41
2022/03/15 05:18:54;;;;;;;9.30;3.47;;;8.30;60.00;;;8.77;50.58;98560.13;6234033;23;20030;-40
2022/03/15 05:21:25;;;;;;;6.85;3.45;;;8.40;60.00;;;8.76;50.81;98557.59;6234225;23;20028;-41
2022/03/15 05:23:54;;;;;;;6.03;3.27;;;8.30;59.90;;;8.76;50.50;98562.91;6244878;23;20023;-41
2022/03/15 05:26:23;;;;;;;4.93;3.70;;;8.40;59.90;;;8.77;50.89;98560.13;6234676;23;20079;-40
2022/03/15 05:28:51;;;;;;;6.60;3.10;;;8.40;59.90;;;8.76;50.88;98557.59;6235352;23;20016;-41
2022/03/15 05:31:23;;;;;;;5.53;3.27;;;8.30;59.90;;;8.72;51.00;98559.66;6234455;23;20020;-41
2022/03/15 05:33:57;;;;;;;4.43;2.97;;;8.30;60.20;;;8.69;50.97;98556.44;6234313;23;20187;-41
2022/03/15 05:36:25;;;;;;;7.03;3.57;;;8.20;60.40;;;8.70;50.80;98558.94;6234695;23;20023;-41
2022/03/15 05:38:54;;;;;;;6.67;3.60;;;8.20;60.40;;;8.66;50.87;98560.16;6233614;23;20019;-40
2022/03/15 05:41:22;;;;;;;7.60;4.57;;;8.20;60.70;;;8.59;51.10;98559.84;6236788;23;20024;-41
2022/03/15 05:43:55;;;;;;;5.17;3.50;;;8.10;60.90;;;8.56;50.98;98562.72;6244942;23;20022;-41
2022/03/15 05:46:23;;;;;;;10.47;3.20;;;8.00;61.00;;;8.51;51.20;98567.59;6234192;23;20034;-40
2022/03/15 05:48:52;;;;;;;6.60;3.20;;;8.00;61.20;;;8.46;50.99;98560.00;6234023;23;20024;-41
2022/03/15 05:51:20;;;;;;;5.63;3.53;;;7.90;61.30;;;8.44;51.23;98558.44;6234340;23;20024;-40
2022/03/15 05:53:48;;;;;;;6.27;3.13;;;7.90;61.40;;;8.44;51.03;98550.47;6234790;23;20030;-39
2022/03/15 05:56:16;;;;;;;8.87;3.10;;;7.90;61.20;;;8.44;51.47;98553.13;6236354;23;20217;-39
2022/03/15 05:58:46;;;;;;;5.53;4.00;;;7.90;61.10;;;8.44;51.05;98548.66;6236494;23;20214;-39
2022/03/15 06:01:16;;;;;;;6.60;3.20;;;8.00;60.90;;;8.47;51.15;98539.59;6209650;23;20020;-39
2022/03/15 06:03:45;;;;;;;6.03;2.97;;;8.10;60.60;;;8.52;50.89;98539.22;6235463;23;20020;-39
2022/03/15 06:06:13;;;;;;;4.47;2.90;;;8.10;60.40;;;8.55;51.13;98542.47;6236244;23;20306;-39
2022/03/15 06:08:41;;;;;;;9.57;3.17;;;8.20;60.20;;;8.62;51.08;98548.13;6210611;23;20458;-39
2022/03/15 06:11:12;;;;;;;5.20;3.63;;;8.30;60.00;;;8.66;50.92;98546.88;6236680;23;20018;-39
2022/03/15 06:13:40;;;;;;;3.80;2.87;;;8.30;59.70;;;8.71;50.64;98535.91;6237804;23;20225;-39
2022/03/15 06:16:08;;;;;;;5.03;3.10;;;8.40;59.60;;;8.73;50.81;98541.94;6235601;23;20344;-40
2022/03/15 06:18:37;;;;;;;4.37;3.17;;;8.40;59.30;;;8.78;50.84;98545.03;6235440;23;20019;-39
2022/03/15 06:21:04;;;;;;;4.13;3.00;;;8.50;59.20;;;8.80;50.68;98546.59;6236613;23;20020;-39
2022/03/15 06:23:32;;;;;;;5.43;2.93;;;8.60;59.10;;;8.83;50.89;98543.66;6236285;23;20022;-39
2022/03/15 06:26:00;;;;;;;5.60;3.33;;;8.60;59.20;;;8.85;50.47;98535.59;6237535;23;20311;-39
2022/03/15 06:28:28;;;;;;;5.33;3.10;;;8.60;58.90;;;8.89;50.25;98534.34;6236641;23;20360;-39
2022/03/15 06:30:57;;;;;;;7.47;2.97;;;8.60;58.80;;;8.94;50.87;98536.63;6236819;23;20024;-39
2022/03/15 06:33:25;;;;;;;9.37;3.23;;;8.70;58.80;;;8.97;50.53;98539.03;6235710;23;20329;-39
2022/03/15 06:35:54;;;;;;;4.87;3.23;;;8.70;58.80;;;8.99;50.64;98545.88;6235836;23;20024;-40
2022/03/15 06:38:24;;;;;;;5.70;3.03;;;8.80;58.80;;;9.03;50.38;98555.31;6237063;23;20078;-39
2022/03/15 06:40:52;;;;;;;6.23;3.40;;;8.80;58.60;;;9.00;50.51;98550.22;6236783;23;20348;-40
2022/03/15 06:43:21;;;;;;;6.27;3.63;;;8.80;58.50;;;9.04;50.39;98545.50;6235938;23;20024;-39
2022/03/15 06:45:49;;;;;;;5.73;2.97;;;8.90;58.60;;;9.07;50.46;98542.56;6234778;23;20028;-40
2022/03/15 06:48:17;;;;;;;6.90;3.30;;;8.90;58.50;;;9.07;50.68;98547.88;6236109;23;20023;-39
2022/03/15 06:50:45;;;;;;;5.50;3.40;;;8.90;59.10;;;9.06;50.70;98552.38;6234523;23;20016;-39
2022/03/15 06:53:13;;;;;;;5.77;3.13;;;8.90;58.50;;;9.10;50.44;98554.78;6237521;23;20012;-39
2022/03/15 06:55:40;;;;;;;4.37;3.00;;;9.00;58.40;;;9.12;50.82;98540.38;6234797;23;20344;-40
2022/03/15 06:58:08;;;;;;;10.00;3.40;;;9.00;58.30;;;9.11;50.41;98536.06;6236957;23;20020;-39
2022/03/15 07:00:36;;;;;;;7.83;3.33;;;9.00;58.20;;;9.14;50.37;98532.28;6236433;23;20020;-39
2022/03/15 07:03:05;;;;;;;5.53;3.07;;;9.10;58.20;;;9.11;50.64;98540.50;6235699;23;20024;-39
2022/03/15 07:05:33;;;;;;;5.30;3.20;;;9.10;58.00;;;9.16;50.50;98539.16;6236927;23;20022;-39
2022/03/15 07:08:01;;;;;;;5.50;2.80;;;9.10;58.10;;;9.21;50.51;98541.44;6235614;23;20038;-40
2022/03/15 07:10:29;;;;;;;5.30;3.33;;;9.10;58.30;;;9.25;50.38;98541.03;6236439;23;20024;-40
2022/03/15 07:12:57;;;;;;;8.00;3.97;;;9.10;59.10;;;9.27;50.40;98528.44;6236289;23;20016;-39
2022/03/15 07:15:25;;;;;;;6.07;3.70;;;9.10;58.60;;;9.26;50.55;98533.88;6234277;23;20217;-40
2022/03/15 07:17:58;;;;;;;6.90;3.30;;;9.10;58.60;;;9.29;50.23;98535.47;6247569;23;20210;-40
2022/03/15 07:20:27;;;;;;;5.60;3.33;;;9.10;58.70;;;9.31;50.43;98534.34;6235556;23;20024;-39
2022/03/15 07:22:55;;;;;;;10.20;4.07;;;9.10;58.80;;;9.34;50.44;98535.88;6235823;23;20016;-39
2022/03/15 07:25:23;;;;;;;6.53;3.13;;;9.10;58.80;;;9.34;50.45;98522.59;6236581;23;20183;-40
2022/03/15 07:27:51;;;;;;;6.70;3.17;;;9.10;59.00;;;9.36;50.54;98515.34;6237216;23;20016;-39
2022/03/15 07:30:20;;;;;;;6.27;3.43;;;9.10;59.20;;;9.37;50.65;98523.19;6235386;23;20016;-39
2022/03/15 07:32:48;;;;;;;8.23;3.63;;;9.10;59.30;;;9.38;50.47;98519.56;6234994;23;20020;-39
2022/03/15 07:35:16;;;;;;;6.23;3.33;;;9.10;60.10;;;9.41;50.56;98531.75;6235192;23;20262;-39
2022/03/15 07:37:50;;;;;;;6.70;3.40;;;9.10;59.30;;;9.41;50.73;98521.13;6236224;23;20221;-39
2022/03/15 07:40:18;;;;;;;8.82;3.70;;;9.10;59.30;;;9.43;50.62;98517.34;6234966;23;20356;-39
2022/03/15 07:42:46;;;;;;;9.47;3.33;;;9.20;59.20;;;9.45;50.68;98522.53;6236520;23;20023;-39
2022/03/15 07:45:14;;;;;;;7.47;3.40;;;9.20;59.10;;;9.46;50.62;98514.44;6233154;23;20027;-39
2022/03/15 07:47:43;;;;;;;6.20;3.53;;;9.20;59.20;;;9.45;50.62;98514.56;6234728;23;20034;-40
2022/03/15 07:50:11;;;;;;;5.97;3.53;;;9.10;59.40;;;9.43;50.71;98511.19;6235107;23;20230;-40
2022/03/15 07:52:39;;;;;;;7.33;3.60;;;9.10;59.60;;;9.40;50.70;98506.13;6236744;23;20018;-39
2022/03/15 07:55:09;;;;;;;6.87;3.90;;;9.00;59.80;;;9.39;50.93;98507.94;6231321;23;20024;-40
2022/03/15 07:57:37;;;;;;;8.20;3.30;;;9.10;59.80;;;9.42;50.96;98517.47;6232948;23;20039;-39
2022/03/15 08:00:06;;;;;;;5.27;3.17;;;9.10;59.70;;;9.46;50.67;98511.78;6237418;23;20012;-40
2022/03/15 08:02:40;;;;;;;6.83;3.50;;;9.20;59.30;;;9.47;50.62;98512.59;6247237;23;20803;-39
2022/03/15 08:05:09;;;;;;;5.03;3.40;;;9.20;58.90;;;9.49;50.51;98510.66;6235121;23;20350;-40
2022/03/15 08:07:37;;;;;;;7.13;3.23;;;9.20;58.70;;;9.50;50.19;98511.47;6210319;23;20326;-40
2022/03/15 08:10:07;;;;;;;5.47;3.27;;;9.20;58.40;;;9.52;50.40;98510.41;6235967;23;20016;-40
2022/03/15 08:12:37;;;;;;;7.10;2.90;;;9.30;58.50;;;9.59;50.30;98521.31;6235636;23;20476;-40
2022/03/15 08:15:07;;;;;;;6.93;3.03;;;9.50;58.20;;;9.65;50.31;98520.78;6233361;23;20016;-40
2022/03/15 08:17:37;;;;;;;8.27;3.10;;;9.50;58.10;;;9.71;50.40;98520.25;6236806;23;20012;-40
2022/03/15 08:20:06;;;;;;;6.47;3.33;;;9.50;58.10;;;9.74;50.11;98516.50;6235198;23;20020;-40
2022/03/15 08:22:34;;;;;;;6.13;3.03;;;9.60;58.20;;;9.77;49.96;98513.56;6235598;23;20030;-40
2022/03/15 08:25:04;;;;;;;5.97;2.87;;;9.60;58.00;;;9.78;49.93;98510.75;6235856;23;20034;-39
2022/03/15 08:27:32;;;;;;;7.60;3.50;;;9.60;57.70;;;9.74;49.59;98514.66;6235766;23;20030;-40
2022/03/15 08:30:00;;;;;;;5.03;3.37;;;9.50;57.70;;;9.72;50.12;98502.50;6235740;23;20024;-40
2022/03/15 08:32:28;;;;;;;10.03;4.17;;;9.50;58.50;;;9.75;50.27;98507.53;6207698;23;20028;-40
2022/03/15 08:34:56;;;;;;;11.70;6.47;;;9.50;58.80;;;9.79;50.52;98508.94;6235936;23;20026;-39
2022/03/15 08:37:24;;;;;;;9.70;5.53;;;9.60;59.10;;;9.66;51.04;98509.19;6235888;23;20315;-40
2022/03/15 08:39:52;;;;;;;10.87;5.87;;;9.40;60.10;;;9.54;51.01;98499.59;6234372;23;20024;-39
2022/03/15 08:42:23;;;;;;;9.17;4.43;;;9.20;60.20;;;9.55;50.75;98509.28;6245908;23;20018;-40
2022/03/15 08:44:52;;;;;;;5.77;4.40;;;9.20;59.80;;;9.56;50.56;98506.50;6236193;23;20441;-40
2022/03/15 08:47:20;;;;;;;7.93;3.83;;;9.20;59.70;;;9.61;50.72;98503.41;6235602;23;20027;-39
2022/03/15 08:49:55;;;;;;;6.53;4.13;;;9.30;59.40;;;9.52;50.93;98505.09;5063433;28;20409;-40
2022/03/15 08:52:23;;;;;;;8.33;4.00;;;9.20;59.80;;;9.51;51.11;98502.56;5045652;28;20472;-40
2022/03/15 08:54:51;;;;;;;7.07;4.10;;;9.20;60.00;;;9.51;51.03;98502.56;5043573;28;20049;-40
2022/03/15 08:57:19;;;;;;;5.30;4.17;;;9.20;60.70;;;9.48;51.21;98498.34;5043504;28;20059;-40
2022/03/15 08:59:47;;;;;;;6.60;4.30;;;9.10;60.50;;;9.59;51.16;98497.41;5042025;28;20665;-40
2022/03/15 09:02:17;;;;;;;8.17;3.93;;;9.30;60.20;;;9.58;51.16;98509.03;5054003;28;20036;-40
2022/03/15 09:04:45;;;;;;;10.90;5.33;;;9.30;60.40;;;9.63;51.29;98509.44;5050382;28;20320;-40
2022/03/15 09:07:13;;;;;;;10.83;4.50;;;9.40;60.50;;;9.70;51.29;98501.78;5054549;28;20045;-40
2022/03/15 09:09:41;;;;;;;8.83;4.40;;;9.50;60.30;;;9.73;51.54;98498.84;5050113;28;20055;-40
2022/03/15 09:12:09;;;;;;;8.77;3.80;;;9.50;60.20;;;9.82;51.24;98498.03;5045711;28;20033;-39
2022/03/15 09:14:37;;;;;;;6.03;3.53;;;9.70;59.60;;;9.91;50.96;98494.56;5053756;28;20229;-40
2022/03/15 09:17:06;;;;;;;6.20;3.30;;;9.80;58.80;;;10.00;50.69;98488.44;5050927;28;20044;-40
2022/03/15 09:19:35;;;;;;;4.17;3.10;;;9.90;58.30;;;10.11;50.65;98487.47;5045287;28;20254;-40
2022/03/15 09:22:04;;;;;;;5.07;2.70;;;10.10;58.10;;;10.21;50.27;98495.47;5043878;28;20056;-40
2022/03/15 09:24:33;;;;;;;6.50;3.13;;;10.20;57.70;;;10.28;50.08;98491.28;5041870;28;20057;-40
2022/03/15 09:27:01;;;;;;;5.67;2.77;;;10.30;57.30;;;10.33;49.87;98486.41;5042723;28;20060;-40
2022/03/15 09:29:29;;;;;;;5.03;2.37;;;10.30;56.90;;;10.40;50.12;98478.69;5042843;28;20095;-40
2022/03/15 09:31:58;;;;;;;5.50;2.77;;;10.40;57.60;;;10.48;50.57;98476.19;5043502;28;20049;-40
2022/03/15 09:34:27;;;;;;;6.50;3.10;;;10.50;58.10;;;10.57;50.44;98469.19;5042488;28;20049;-40
2022/03/15 09:36:55;;;;;;;5.13;2.60;;;10.60;57.70;;;10.62;50.20;98462.44;5042444;28;20049;-40
2022/03/15 09:39:23;;;;;;;6.20;2.60;;;10.60;57.60;;;10.68;49.89;98454.84;5042723;28;20053;-40
2022/03/15 09:41:54;;;;;;;5.47;2.60;;;10.70;57.40;;;10.71;49.29;98449.25;5043284;28;20057;-40
2022/03/15 09:44:32;;;;;;;6.15;2.92;;;10.70;56.30;;;10.76;50.18;98447.84;5039399;28;20067;-40
2022/03/15 09:47:03;;;;;;;3.73;2.67;;;10.80;57.60;;;10.82;50.12;98444.63;5049702;28;20041;-40
2022/03/15 09:49:33;;;;;;;5.10;2.97;;;10.80;58.10;;;10.84;50.33;98444.47;5053484;28;20059;-40
2022/03/15 09:52:07;;;;;;;6.20;2.90;;;10.80;58.20;;;10.87;50.72;98432.69;5054348;28;20045;-40
2022/03/15 09:54:36;;;;;;;5.40;2.40;;;10.80;59.40;;;10.84;50.79;98428.50;5052704;28;20045;-40
2022/03/15 09:57:05;;;;;;;6.60;2.93;;;10.80;59.60;;;10.84;51.20;98412.50;5054195;28;20071;-40
2022/03/15 09:59:34;;;;;;;6.75;3.42;;;10.70;60.20;;;10.84;51.55;98412.50;5047293;28;20308;-40
2022/03/15 10:02:03;;;;;;;7.97;2.90;;;10.70;60.50;;;10.82;51.52;98406.50;5037251;28;20061;-40
2022/03/15 10:04:31;;;;;;;4.20;2.87;;;10.70;61.20;;;10.82;51.67;98395.84;5029806;28;20052;-40
2022/03/15 10:06:59;;;;;;;7.43;3.00;;;10.70;61.40;;;10.84;51.59;98400.03;5018348;28;20053;-40
2022/03/15 10:09:28;;;;;;;7.00;3.03;;;10.70;61.20;;;10.84;51.85;98388.53;5018559;28;20058;-40
2022/03/15 10:11:56;;;;;;;5.13;2.63;;;10.70;61.50;;;10.85;51.66;98379.53;5013601;28;20078;-40
2022/03/15 10:14:24;;;;;;;4.85;2.85;;;10.70;60.70;;;10.86;51.40;98377.72;5012258;28;20237;-40
2022/03/15 10:17:03;;;;;;;5.97;2.63;;;10.70;60.50;;;10.83;52.09;98371.69;5013004;28;20060;-40
2022/03/15 10:19:31;;;;;;;6.27;3.03;;;10.80;61.60;;;10.82;52.50;98374.53;5011066;28;20053;-40
2022/03/15 10:22:00;;;;;;;4.57;2.50;;;10.80;61.40;;;10.84;52.41;98373.38;5010644;28;20046;-40
2022/03/15 10:24:29;;;;;;;5.35;2.63;;;10.80;61.00;;;10.83;52.30;98371.69;5008898;28;20062;-40
2022/03/15 10:27:01;;;;;;;6.43;3.17;;;10.90;61.70;;;10.84;52.87;98368.06;5009761;28;20443;-40
2022/03/15 10:29:30;;;;;;;4.38;2.53;;;10.80;63.30;;;10.85;53.58;98371.56;5010200;28;20066;-40
2022/03/15 10:32:01;;;;;;;4.27;2.70;;;10.70;64.20;;;10.83;53.71;98360.22;5009677;28;20057;-40
2022/03/15 10:34:29;;;;;;;4.18;2.58;;;10.70;63.50;;;10.85;53.53;98350.25;5024271;28;20610;-41
2022/03/15 10:36:57;;;;;;;6.63;3.67;;;10.70;64.70;;;10.87;54.33;98334.13;5010601;28;20049;-40